sensor_id;sensor_type;location;lat;lon;timestamp;temperature;humidity
70807;DHT22;58882;52.170;5.386;2023-04-21T00:01:47;16.10;45.40
70807;DHT22;58882;52.170;5.386;2023-04-21T00:04:14;16.10;45.50
70807;DHT22;58882;52.170;5.386;2023-04-21T00:06:42;16.10;45.50
70807;DHT22;58882;52.170;5.386;2023-04-21T00:09:10;16.10;45.70
70807;DHT22;58882;52.170;5.386;2023-04-21T00:11:37;16.10;45.80
70807;DHT22;58882;52.170;5.386;2023-04-21T00:14:04;16.10;45.90
70807;DHT22;58882;52.170;5.386;2023-04-21T00:16:31;16.10;46.00
70807;DHT22;58882;52.170;5.386;2023-04-21T00:18:57;16.10;46.10
70807;DHT22;58882;52.170;5.386;2023-04-21T00:21:24;16.10;46.30
70807;DHT22;58882;52.170;5.386;2023-04-21T00:23:52;16.10;46.40
70807;DHT22;58882;52.170;5.386;2023-04-21T00:26:19;16.00;46.40
70807;DHT22;58882;52.170;5.386;2023-04-21T00:28:48;16.00;46.50
70807;DHT22;58882;52.170;5.386;2023-04-21T00:31:15;16.00;46.60
70807;DHT22;58882;52.170;5.386;2023-04-21T00:33:42;16.00;46.70
70807;DHT22;58882;52.170;5.386;2023-04-21T00:36:09;16.00;47.00
70807;DHT22;58882;52.170;5.386;2023-04-21T00:38:36;16.00;47.10
70807;DHT22;58882;52.170;5.386;2023-04-21T00:41:02;15.90;47.20
70807;DHT22;58882;52.170;5.386;2023-04-21T00:43:29;15.90;47.30
70807;DHT22;58882;52.170;5.386;2023-04-21T00:45:56;15.90;47.30
70807;DHT22;58882;52.170;5.386;2023-04-21T00:48:23;15.90;47.60
70807;DHT22;58882;52.170;5.386;2023-04-21T00:50:50;15.90;47.70
70807;DHT22;58882;52.170;5.386;2023-04-21T00:53:17;15.90;47.80
70807;DHT22;58882;52.170;5.386;2023-04-21T00:55:46;15.90;47.80
70807;DHT22;58882;52.170;5.386;2023-04-21T00:58:12;15.90;48.00
70807;DHT22;58882;52.170;5.386;2023-04-21T01:00:39;15.90;48.00
70807;DHT22;58882;52.170;5.386;2023-04-21T01:03:06;15.90;48.10
70807;DHT22;58882;52.170;5.386;2023-04-21T01:05:33;15.90;48.20
70807;DHT22;58882;52.170;5.386;2023-04-21T01:08:02;15.90;48.40
70807;DHT22;58882;52.170;5.386;2023-04-21T01:10:30;15.90;48.60
70807;DHT22;58882;52.170;5.386;2023-04-21T01:12:56;15.80;48.60
70807;DHT22;58882;52.170;5.386;2023-04-21T01:15:23;15.90;48.60
70807;DHT22;58882;52.170;5.386;2023-04-21T01:17:51;15.80;48.70
70807;DHT22;58882;52.170;5.386;2023-04-21T01:20:19;15.80;48.80
70807;DHT22;58882;52.170;5.386;2023-04-21T01:22:46;15.80;49.80
70807;DHT22;58882;52.170;5.386;2023-04-21T01:25:13;15.80;48.90
70807;DHT22;58882;52.170;5.386;2023-04-21T01:27:40;15.90;49.10
70807;DHT22;58882;52.170;5.386;2023-04-21T01:30:07;15.90;49.20
70807;DHT22;58882;52.170;5.386;2023-04-21T01:32:35;15.90;49.20
70807;DHT22;58882;52.170;5.386;2023-04-21T01:35:02;15.90;49.20
70807;DHT22;58882;52.170;5.386;2023-04-21T01:37:31;15.90;49.30
70807;DHT22;58882;52.170;5.386;2023-04-21T01:40:00;15.90;49.20
70807;DHT22;58882;52.170;5.386;2023-04-21T01:42:29;15.90;49.30
70807;DHT22;58882;52.170;5.386;2023-04-21T01:44:57;15.80;49.50
70807;DHT22;58882;52.170;5.386;2023-04-21T01:47:24;15.80;49.60
70807;DHT22;58882;52.170;5.386;2023-04-21T01:49:52;15.80;49.70
70807;DHT22;58882;52.170;5.386;2023-04-21T01:52:19;15.90;49.90
70807;DHT22;58882;52.170;5.386;2023-04-21T01:54:47;15.80;50.00
70807;DHT22;58882;52.170;5.386;2023-04-21T01:57:14;15.80;50.00
70807;DHT22;58882;52.170;5.386;2023-04-21T01:59:42;15.80;50.00
70807;DHT22;58882;52.170;5.386;2023-04-21T02:02:09;15.80;50.10
70807;DHT22;58882;52.170;5.386;2023-04-21T02:04:36;15.80;50.10
70807;DHT22;58882;52.170;5.386;2023-04-21T02:07:04;15.90;50.30
70807;DHT22;58882;52.170;5.386;2023-04-21T02:09:31;15.80;50.30
70807;DHT22;58882;52.170;5.386;2023-04-21T02:11:58;15.80;50.20
70807;DHT22;58882;52.170;5.386;2023-04-21T02:14:26;15.80;50.30
70807;DHT22;58882;52.170;5.386;2023-04-21T02:16:52;15.80;50.30
70807;DHT22;58882;52.170;5.386;2023-04-21T02:19:22;15.80;50.40
70807;DHT22;58882;52.170;5.386;2023-04-21T02:21:48;15.80;50.50
70807;DHT22;58882;52.170;5.386;2023-04-21T02:24:15;15.80;50.60
70807;DHT22;58882;52.170;5.386;2023-04-21T02:26:44;15.80;50.70
70807;DHT22;58882;52.170;5.386;2023-04-21T02:29:11;15.80;50.70
70807;DHT22;58882;52.170;5.386;2023-04-21T02:31:38;15.80;50.90
70807;DHT22;58882;52.170;5.386;2023-04-21T02:34:23;15.80;50.90
70807;DHT22;58882;52.170;5.386;2023-04-21T02:36:50;15.80;50.80
70807;DHT22;58882;52.170;5.386;2023-04-21T02:39:18;15.80;50.80
70807;DHT22;58882;52.170;5.386;2023-04-21T02:41:45;15.80;50.90
70807;DHT22;58882;52.170;5.386;2023-04-21T02:44:12;15.80;50.90
70807;DHT22;58882;52.170;5.386;2023-04-21T02:46:39;15.80;50.90
70807;DHT22;58882;52.170;5.386;2023-04-21T02:49:08;15.80;51.00
70807;DHT22;58882;52.170;5.386;2023-04-21T02:51:34;15.80;51.00
70807;DHT22;58882;52.170;5.386;2023-04-21T02:54:02;15.90;51.10
70807;DHT22;58882;52.170;5.386;2023-04-21T02:56:29;15.80;51.00
70807;DHT22;58882;52.170;5.386;2023-04-21T02:58:57;15.90;51.10
70807;DHT22;58882;52.170;5.386;2023-04-21T03:01:23;15.90;51.00
70807;DHT22;58882;52.170;5.386;2023-04-21T03:03:50;15.80;51.00
70807;DHT22;58882;52.170;5.386;2023-04-21T03:06:18;15.80;51.00
70807;DHT22;58882;52.170;5.386;2023-04-21T03:08:44;15.80;51.00
70807;DHT22;58882;52.170;5.386;2023-04-21T03:11:12;15.80;51.10
70807;DHT22;58882;52.170;5.386;2023-04-21T03:13:38;15.80;51.30
70807;DHT22;58882;52.170;5.386;2023-04-21T03:16:05;15.80;51.20
70807;DHT22;58882;52.170;5.386;2023-04-21T03:18:34;15.80;51.20
70807;DHT22;58882;52.170;5.386;2023-04-21T03:21:01;15.80;51.20
70807;DHT22;58882;52.170;5.386;2023-04-21T03:23:28;15.80;51.30
70807;DHT22;58882;52.170;5.386;2023-04-21T03:25:55;15.80;51.30
70807;DHT22;58882;52.170;5.386;2023-04-21T03:28:22;15.80;51.30
70807;DHT22;58882;52.170;5.386;2023-04-21T03:30:50;15.80;51.30
70807;DHT22;58882;52.170;5.386;2023-04-21T03:33:17;15.80;51.40
70807;DHT22;58882;52.170;5.386;2023-04-21T03:35:44;15.80;51.40
70807;DHT22;58882;52.170;5.386;2023-04-21T03:38:11;15.80;51.50
70807;DHT22;58882;52.170;5.386;2023-04-21T03:40:38;15.80;51.50
70807;DHT22;58882;52.170;5.386;2023-04-21T03:43:05;15.80;51.60
70807;DHT22;58882;52.170;5.386;2023-04-21T03:45:34;15.80;51.60
70807;DHT22;58882;52.170;5.386;2023-04-21T03:48:01;15.80;51.60
70807;DHT22;58882;52.170;5.386;2023-04-21T03:50:29;15.80;51.70
70807;DHT22;58882;52.170;5.386;2023-04-21T03:52:56;15.80;51.70
70807;DHT22;58882;52.170;5.386;2023-04-21T03:55:23;15.70;51.70
70807;DHT22;58882;52.170;5.386;2023-04-21T03:57:49;15.70;51.70
70807;DHT22;58882;52.170;5.386;2023-04-21T04:00:16;15.70;51.70
70807;DHT22;58882;52.170;5.386;2023-04-21T04:02:43;15.70;51.80
70807;DHT22;58882;52.170;5.386;2023-04-21T04:05:11;15.70;51.80
70807;DHT22;58882;52.170;5.386;2023-04-21T04:07:38;15.70;51.90
70807;DHT22;58882;52.170;5.386;2023-04-21T04:10:04;15.70;52.00
70807;DHT22;58882;52.170;5.386;2023-04-21T04:12:31;15.70;52.00
70807;DHT22;58882;52.170;5.386;2023-04-21T04:14:58;15.70;52.00
70807;DHT22;58882;52.170;5.386;2023-04-21T04:17:25;15.70;52.10
70807;DHT22;58882;52.170;5.386;2023-04-21T04:19:52;15.70;52.10
70807;DHT22;58882;52.170;5.386;2023-04-21T04:22:19;15.70;52.20
70807;DHT22;58882;52.170;5.386;2023-04-21T04:24:46;15.60;52.20
70807;DHT22;58882;52.170;5.386;2023-04-21T04:27:13;15.70;52.30
70807;DHT22;58882;52.170;5.386;2023-04-21T04:29:40;15.70;52.30
70807;DHT22;58882;52.170;5.386;2023-04-21T04:32:07;15.60;52.20
70807;DHT22;58882;52.170;5.386;2023-04-21T04:34:36;15.70;52.30
70807;DHT22;58882;52.170;5.386;2023-04-21T04:37:03;15.60;52.30
70807;DHT22;58882;52.170;5.386;2023-04-21T04:39:30;15.60;52.30
70807;DHT22;58882;52.170;5.386;2023-04-21T04:41:57;15.60;52.40
70807;DHT22;58882;52.170;5.386;2023-04-21T04:44:24;15.60;52.50
70807;DHT22;58882;52.170;5.386;2023-04-21T04:46:51;15.60;52.60
70807;DHT22;58882;52.170;5.386;2023-04-21T04:49:19;15.60;52.60
70807;DHT22;58882;52.170;5.386;2023-04-21T04:51:49;15.60;52.70
70807;DHT22;58882;52.170;5.386;2023-04-21T04:54:16;15.70;52.70
70807;DHT22;58882;52.170;5.386;2023-04-21T04:56:43;15.60;52.70
70807;DHT22;58882;52.170;5.386;2023-04-21T04:59:11;15.60;52.70
70807;DHT22;58882;52.170;5.386;2023-04-21T05:01:38;15.70;52.70
70807;DHT22;58882;52.170;5.386;2023-04-21T05:04:06;15.70;52.70
70807;DHT22;58882;52.170;5.386;2023-04-21T05:06:33;15.60;52.70
70807;DHT22;58882;52.170;5.386;2023-04-21T05:09:00;15.60;52.70
70807;DHT22;58882;52.170;5.386;2023-04-21T05:11:27;15.60;52.70
70807;DHT22;58882;52.170;5.386;2023-04-21T05:13:54;15.60;52.70
70807;DHT22;58882;52.170;5.386;2023-04-21T05:16:21;15.60;52.70
70807;DHT22;58882;52.170;5.386;2023-04-21T05:18:48;15.70;52.80
70807;DHT22;58882;52.170;5.386;2023-04-21T05:21:26;15.70;52.90
70807;DHT22;58882;52.170;5.386;2023-04-21T05:23:57;15.60;52.80
70807;DHT22;58882;52.170;5.386;2023-04-21T05:26:25;15.70;52.90
70807;DHT22;58882;52.170;5.386;2023-04-21T05:28:57;15.70;53.00
70807;DHT22;58882;52.170;5.386;2023-04-21T05:31:25;15.70;53.00
70807;DHT22;58882;52.170;5.386;2023-04-21T05:33:52;15.70;53.00
70807;DHT22;58882;52.170;5.386;2023-04-21T05:36:18;15.70;52.90
70807;DHT22;58882;52.170;5.386;2023-04-21T05:38:46;15.70;52.90
70807;DHT22;58882;52.170;5.386;2023-04-21T05:41:13;15.70;52.80
70807;DHT22;58882;52.170;5.386;2023-04-21T05:43:39;15.80;52.80
70807;DHT22;58882;52.170;5.386;2023-04-21T05:46:09;15.80;52.80
70807;DHT22;58882;52.170;5.386;2023-04-21T05:48:37;15.80;52.70
70807;DHT22;58882;52.170;5.386;2023-04-21T05:51:13;15.80;52.70
70807;DHT22;58882;52.170;5.386;2023-04-21T05:53:44;15.90;52.80
70807;DHT22;58882;52.170;5.386;2023-04-21T05:56:11;15.90;52.70
70807;DHT22;58882;52.170;5.386;2023-04-21T05:58:38;15.90;52.70
70807;DHT22;58882;52.170;5.386;2023-04-21T06:01:05;15.90;52.70
70807;DHT22;58882;52.170;5.386;2023-04-21T06:03:32;15.90;52.60
70807;DHT22;58882;52.170;5.386;2023-04-21T06:06:03;16.00;52.60
70807;DHT22;58882;52.170;5.386;2023-04-21T06:08:30;16.00;52.60
70807;DHT22;58882;52.170;5.386;2023-04-21T06:10:57;16.00;53.60
70807;DHT22;58882;52.170;5.386;2023-04-21T06:13:24;16.00;53.50
70807;DHT22;58882;52.170;5.386;2023-04-21T06:15:53;16.10;52.70
70807;DHT22;58882;52.170;5.386;2023-04-21T06:18:20;16.10;52.60
70807;DHT22;58882;52.170;5.386;2023-04-21T06:20:51;16.20;53.50
70807;DHT22;58882;52.170;5.386;2023-04-21T06:23:18;16.30;52.30
70807;DHT22;58882;52.170;5.386;2023-04-21T06:25:46;16.30;52.10
70807;DHT22;58882;52.170;5.386;2023-04-21T06:28:12;16.40;51.90
70807;DHT22;58882;52.170;5.386;2023-04-21T06:30:39;16.40;51.80
70807;DHT22;58882;52.170;5.386;2023-04-21T06:33:06;16.50;51.60
70807;DHT22;58882;52.170;5.386;2023-04-21T06:35:33;16.60;51.50
70807;DHT22;58882;52.170;5.386;2023-04-21T06:38:00;16.60;51.40
70807;DHT22;58882;52.170;5.386;2023-04-21T06:40:27;16.70;51.30
70807;DHT22;58882;52.170;5.386;2023-04-21T06:42:53;16.70;51.20
70807;DHT22;58882;52.170;5.386;2023-04-21T06:45:21;16.80;51.20
70807;DHT22;58882;52.170;5.386;2023-04-21T06:47:48;16.80;51.00
70807;DHT22;58882;52.170;5.386;2023-04-21T06:50:15;16.80;50.90
70807;DHT22;58882;52.170;5.386;2023-04-21T06:52:42;16.80;50.80
70807;DHT22;58882;52.170;5.386;2023-04-21T06:55:09;16.90;50.90
70807;DHT22;58882;52.170;5.386;2023-04-21T06:57:36;16.90;50.80
70807;DHT22;58882;52.170;5.386;2023-04-21T07:00:03;17.00;50.80
70807;DHT22;58882;52.170;5.386;2023-04-21T07:02:31;17.00;50.60
70807;DHT22;58882;52.170;5.386;2023-04-21T07:04:58;17.10;50.60
70807;DHT22;58882;52.170;5.386;2023-04-21T07:07:25;17.20;50.40
70807;DHT22;58882;52.170;5.386;2023-04-21T07:09:52;17.20;50.30
70807;DHT22;58882;52.170;5.386;2023-04-21T07:12:19;17.30;50.20
70807;DHT22;58882;52.170;5.386;2023-04-21T07:14:46;17.40;50.10
70807;DHT22;58882;52.170;5.386;2023-04-21T07:17:13;17.50;50.10
70807;DHT22;58882;52.170;5.386;2023-04-21T07:19:39;17.60;50.20
70807;DHT22;58882;52.170;5.386;2023-04-21T07:22:06;17.90;49.80
70807;DHT22;58882;52.170;5.386;2023-04-21T07:24:33;18.00;49.30
70807;DHT22;58882;52.170;5.386;2023-04-21T07:27:01;18.20;48.90
70807;DHT22;58882;52.170;5.386;2023-04-21T07:29:30;18.30;48.60
70807;DHT22;58882;52.170;5.386;2023-04-21T07:31:57;18.50;48.30
70807;DHT22;58882;52.170;5.386;2023-04-21T07:34:24;18.50;49.00
70807;DHT22;58882;52.170;5.386;2023-04-21T07:36:51;18.50;47.90
70807;DHT22;58882;52.170;5.386;2023-04-21T07:39:18;18.50;47.70
70807;DHT22;58882;52.170;5.386;2023-04-21T07:41:45;18.50;47.80
70807;DHT22;58882;52.170;5.386;2023-04-21T07:44:12;18.40;47.90
70807;DHT22;58882;52.170;5.386;2023-04-21T07:46:39;18.40;48.00
70807;DHT22;58882;52.170;5.386;2023-04-21T07:49:06;18.30;48.00
70807;DHT22;58882;52.170;5.386;2023-04-21T07:51:33;18.30;49.10
70807;DHT22;58882;52.170;5.386;2023-04-21T07:54:00;18.30;48.20
70807;DHT22;58882;52.170;5.386;2023-04-21T07:56:27;18.40;48.20
70807;DHT22;58882;52.170;5.386;2023-04-21T07:58:54;18.50;47.90
70807;DHT22;58882;52.170;5.386;2023-04-21T08:01:21;18.50;47.70
70807;DHT22;58882;52.170;5.386;2023-04-21T08:03:49;18.50;47.60
70807;DHT22;58882;52.170;5.386;2023-04-21T08:06:16;18.50;47.60
70807;DHT22;58882;52.170;5.386;2023-04-21T08:08:43;18.50;47.50
70807;DHT22;58882;52.170;5.386;2023-04-21T08:11:10;18.50;48.50
70807;DHT22;58882;52.170;5.386;2023-04-21T08:13:36;18.50;47.50
70807;DHT22;58882;52.170;5.386;2023-04-21T08:16:03;18.50;47.50
70807;DHT22;58882;52.170;5.386;2023-04-21T08:18:30;18.50;47.40
70807;DHT22;58882;52.170;5.386;2023-04-21T08:20:57;18.40;47.40
70807;DHT22;58882;52.170;5.386;2023-04-21T08:23:25;18.40;47.50
70807;DHT22;58882;52.170;5.386;2023-04-21T08:25:53;18.40;47.70
70807;DHT22;58882;52.170;5.386;2023-04-21T08:28:20;18.60;47.70
70807;DHT22;58882;52.170;5.386;2023-04-21T08:30:46;18.70;47.40
70807;DHT22;58882;52.170;5.386;2023-04-21T08:33:13;18.90;47.00
70807;DHT22;58882;52.170;5.386;2023-04-21T08:35:40;18.90;46.80
70807;DHT22;58882;52.170;5.386;2023-04-21T08:38:27;18.90;46.60
70807;DHT22;58882;52.170;5.386;2023-04-21T08:40:54;18.90;46.50
70807;DHT22;58882;52.170;5.386;2023-04-21T08:43:24;18.90;46.50
70807;DHT22;58882;52.170;5.386;2023-04-21T08:45:51;18.80;46.60
70807;DHT22;58882;52.170;5.386;2023-04-21T08:48:21;18.80;46.60
70807;DHT22;58882;52.170;5.386;2023-04-21T08:50:50;18.80;46.70
70807;DHT22;58882;52.170;5.386;2023-04-21T08:53:17;18.80;46.70
70807;DHT22;58882;52.170;5.386;2023-04-21T08:55:44;18.80;46.70
70807;DHT22;58882;52.170;5.386;2023-04-21T08:58:25;18.80;46.70
70807;DHT22;58882;52.170;5.386;2023-04-21T09:00:52;18.80;46.70
70807;DHT22;58882;52.170;5.386;2023-04-21T09:03:23;18.80;46.50
70807;DHT22;58882;52.170;5.386;2023-04-21T09:06:00;18.80;46.50
70807;DHT22;58882;52.170;5.386;2023-04-21T09:08:28;18.80;46.50
70807;DHT22;58882;52.170;5.386;2023-04-21T09:10:56;18.90;46.50
70807;DHT22;58882;52.170;5.386;2023-04-21T09:13:31;18.90;46.30
70807;DHT22;58882;52.170;5.386;2023-04-21T09:15:59;19.00;46.30
70807;DHT22;58882;52.170;5.386;2023-04-21T09:18:28;19.00;46.20
70807;DHT22;58882;52.170;5.386;2023-04-21T09:21:05;19.10;46.20
70807;DHT22;58882;52.170;5.386;2023-04-21T09:23:51;19.10;46.20
70807;DHT22;58882;52.170;5.386;2023-04-21T09:26:20;19.20;46.70
70807;DHT22;58882;52.170;5.386;2023-04-21T09:28:50;19.20;46.80
70807;DHT22;58882;52.170;5.386;2023-04-21T09:31:22;19.20;47.90
70807;DHT22;58882;52.170;5.386;2023-04-21T09:33:55;19.20;46.90
70807;DHT22;58882;52.170;5.386;2023-04-21T09:36:28;19.30;46.70
70807;DHT22;58882;52.170;5.386;2023-04-21T09:39:02;19.30;46.80
70807;DHT22;58882;52.170;5.386;2023-04-21T09:41:49;19.40;46.70
70807;DHT22;58882;52.170;5.386;2023-04-21T09:44:16;19.50;46.70
70807;DHT22;58882;52.170;5.386;2023-04-21T09:46:47;19.50;46.80
70807;DHT22;58882;52.170;5.386;2023-04-21T09:49:16;19.50;46.60
70807;DHT22;58882;52.170;5.386;2023-04-21T09:51:44;19.40;46.50
70807;DHT22;58882;52.170;5.386;2023-04-21T09:54:32;19.40;46.60
70807;DHT22;58882;52.170;5.386;2023-04-21T09:57:02;19.40;46.60
70807;DHT22;58882;52.170;5.386;2023-04-21T09:59:33;19.30;46.70
70807;DHT22;58882;52.170;5.386;2023-04-21T10:02:04;19.30;46.70
70807;DHT22;58882;52.170;5.386;2023-04-21T10:04:33;19.30;46.70
70807;DHT22;58882;52.170;5.386;2023-04-21T10:07:00;19.30;46.80
70807;DHT22;58882;52.170;5.386;2023-04-21T10:09:36;19.40;47.10
70807;DHT22;58882;52.170;5.386;2023-04-21T10:12:05;19.40;47.40
70807;DHT22;58882;52.170;5.386;2023-04-21T10:14:35;19.50;47.30
70807;DHT22;58882;52.170;5.386;2023-04-21T10:17:04;19.60;47.40
70807;DHT22;58882;52.170;5.386;2023-04-21T10:19:31;19.80;48.30
70807;DHT22;58882;52.170;5.386;2023-04-21T10:22:08;20.00;48.20
70807;DHT22;58882;52.170;5.386;2023-04-21T10:24:40;20.10;47.40
70807;DHT22;58882;52.170;5.386;2023-04-21T10:27:11;20.20;47.00
70807;DHT22;58882;52.170;5.386;2023-04-21T10:29:38;20.20;46.60
70807;DHT22;58882;52.170;5.386;2023-04-21T10:32:40;20.10;46.40
70807;DHT22;58882;52.170;5.386;2023-04-21T10:35:09;20.00;47.60
70807;DHT22;58882;52.170;5.386;2023-04-21T10:37:36;20.10;47.80
70807;DHT22;58882;52.170;5.386;2023-04-21T10:40:03;20.10;47.00
70807;DHT22;58882;52.170;5.386;2023-04-21T10:42:35;20.20;47.20
70807;DHT22;58882;52.170;5.386;2023-04-21T10:45:08;20.20;47.50
70807;DHT22;58882;52.170;5.386;2023-04-21T10:47:45;20.20;48.00
70807;DHT22;58882;52.170;5.386;2023-04-21T10:50:28;20.20;48.50
70807;DHT22;58882;52.170;5.386;2023-04-21T10:55:25;20.20;48.30
70807;DHT22;58882;52.170;5.386;2023-04-21T10:57:53;20.20;48.80
70807;DHT22;58882;52.170;5.386;2023-04-21T11:00:22;20.30;48.30
70807;DHT22;58882;52.170;5.386;2023-04-21T11:02:59;20.20;48.10
70807;DHT22;58882;52.170;5.386;2023-04-21T11:05:37;20.20;49.20
70807;DHT22;58882;52.170;5.386;2023-04-21T11:08:07;20.20;48.30
70807;DHT22;58882;52.170;5.386;2023-04-21T11:11:00;20.20;48.30
70807;DHT22;58882;52.170;5.386;2023-04-21T11:13:27;20.20;48.30
70807;DHT22;58882;52.170;5.386;2023-04-21T11:16:03;20.30;48.80
70807;DHT22;58882;52.170;5.386;2023-04-21T11:18:42;20.40;48.90
70807;DHT22;58882;52.170;5.386;2023-04-21T11:21:17;20.40;48.10
70807;DHT22;58882;52.170;5.386;2023-04-21T11:23:52;20.30;47.20
70807;DHT22;58882;52.170;5.386;2023-04-21T11:26:34;20.20;47.00
70807;DHT22;58882;52.170;5.386;2023-04-21T11:29:05;20.20;47.50
70807;DHT22;58882;52.170;5.386;2023-04-21T11:31:34;20.10;47.20
70807;DHT22;58882;52.170;5.386;2023-04-21T11:34:04;20.10;48.60
70807;DHT22;58882;52.170;5.386;2023-04-21T11:36:38;20.00;47.80
70807;DHT22;58882;52.170;5.386;2023-04-21T11:39:06;20.10;48.20
70807;DHT22;58882;52.170;5.386;2023-04-21T11:41:40;20.00;48.80
70807;DHT22;58882;52.170;5.386;2023-04-21T11:44:08;20.00;48.90
70807;DHT22;58882;52.170;5.386;2023-04-21T11:46:36;20.10;49.10
70807;DHT22;58882;52.170;5.386;2023-04-21T11:49:09;20.10;49.40
70807;DHT22;58882;52.170;5.386;2023-04-21T11:51:38;20.10;48.30
70807;DHT22;58882;52.170;5.386;2023-04-21T11:54:07;20.20;48.00
70807;DHT22;58882;52.170;5.386;2023-04-21T11:56:41;20.20;49.00
70807;DHT22;58882;52.170;5.386;2023-04-21T11:59:12;20.40;49.00
70807;DHT22;58882;52.170;5.386;2023-04-21T12:01:50;20.60;48.80
70807;DHT22;58882;52.170;5.386;2023-04-21T12:04:24;20.70;47.90
70807;DHT22;58882;52.170;5.386;2023-04-21T12:06:59;20.90;46.90
70807;DHT22;58882;52.170;5.386;2023-04-21T12:09:27;21.00;47.50
70807;DHT22;58882;52.170;5.386;2023-04-21T12:11:55;21.10;47.80
70807;DHT22;58882;52.170;5.386;2023-04-21T12:14:23;21.10;47.00
70807;DHT22;58882;52.170;5.386;2023-04-21T12:16:56;21.20;46.30
70807;DHT22;58882;52.170;5.386;2023-04-21T12:19:34;21.20;45.70
70807;DHT22;58882;52.170;5.386;2023-04-21T12:22:09;21.10;46.00
70807;DHT22;58882;52.170;5.386;2023-04-21T12:24:37;21.10;47.30
70807;DHT22;58882;52.170;5.386;2023-04-21T12:27:04;21.10;46.80
70807;DHT22;58882;52.170;5.386;2023-04-21T12:29:32;21.10;47.00
70807;DHT22;58882;52.170;5.386;2023-04-21T12:32:04;21.10;47.40
70807;DHT22;58882;52.170;5.386;2023-04-21T12:34:31;21.00;47.50
70807;DHT22;58882;52.170;5.386;2023-04-21T12:36:58;21.10;47.20
70807;DHT22;58882;52.170;5.386;2023-04-21T12:39:25;21.20;47.10
70807;DHT22;58882;52.170;5.386;2023-04-21T12:41:52;21.20;47.40
70807;DHT22;58882;52.170;5.386;2023-04-21T12:44:18;21.10;48.00
70807;DHT22;58882;52.170;5.386;2023-04-21T12:46:46;21.20;48.30
70807;DHT22;58882;52.170;5.386;2023-04-21T12:49:14;21.20;48.50
70807;DHT22;58882;52.170;5.386;2023-04-21T12:51:43;21.10;46.50
70807;DHT22;58882;52.170;5.386;2023-04-21T12:54:13;21.10;46.90
70807;DHT22;58882;52.170;5.386;2023-04-21T12:56:41;21.10;46.70
70807;DHT22;58882;52.170;5.386;2023-04-21T12:59:09;21.10;45.90
70807;DHT22;58882;52.170;5.386;2023-04-21T13:01:37;21.00;45.30
70807;DHT22;58882;52.170;5.386;2023-04-21T13:04:05;21.00;45.50
70807;DHT22;58882;52.170;5.386;2023-04-21T13:06:33;20.90;46.40
70807;DHT22;58882;52.170;5.386;2023-04-21T13:09:01;20.90;45.40
70807;DHT22;58882;52.170;5.386;2023-04-21T13:11:28;20.90;45.10
70807;DHT22;58882;52.170;5.386;2023-04-21T13:13:57;20.80;45.10
70807;DHT22;58882;52.170;5.386;2023-04-21T13:16:23;20.80;46.00
70807;DHT22;58882;52.170;5.386;2023-04-21T13:18:52;20.80;45.90
70807;DHT22;58882;52.170;5.386;2023-04-21T13:21:19;20.90;46.30
70807;DHT22;58882;52.170;5.386;2023-04-21T13:23:46;20.90;45.90
70807;DHT22;58882;52.170;5.386;2023-04-21T13:26:14;20.90;45.50
70807;DHT22;58882;52.170;5.386;2023-04-21T13:28:41;20.90;45.90
70807;DHT22;58882;52.170;5.386;2023-04-21T13:31:08;20.80;46.30
70807;DHT22;58882;52.170;5.386;2023-04-21T13:33:35;20.80;47.20
70807;DHT22;58882;52.170;5.386;2023-04-21T13:36:02;20.70;47.60
70807;DHT22;58882;52.170;5.386;2023-04-21T13:38:30;20.70;48.00
70807;DHT22;58882;52.170;5.386;2023-04-21T13:40:57;20.70;47.20
70807;DHT22;58882;52.170;5.386;2023-04-21T13:43:24;20.70;47.40
70807;DHT22;58882;52.170;5.386;2023-04-21T13:45:51;20.70;47.40
70807;DHT22;58882;52.170;5.386;2023-04-21T13:48:20;20.70;47.10
70807;DHT22;58882;52.170;5.386;2023-04-21T13:50:50;20.70;46.70
70807;DHT22;58882;52.170;5.386;2023-04-21T13:53:17;20.80;47.10
70807;DHT22;58882;52.170;5.386;2023-04-21T13:55:47;20.80;47.30
70807;DHT22;58882;52.170;5.386;2023-04-21T13:58:14;20.80;46.80
70807;DHT22;58882;52.170;5.386;2023-04-21T14:00:42;20.80;47.00
70807;DHT22;58882;52.170;5.386;2023-04-21T14:03:09;20.80;46.50
70807;DHT22;58882;52.170;5.386;2023-04-21T14:05:37;20.90;47.10
70807;DHT22;58882;52.170;5.386;2023-04-21T14:08:05;20.90;46.20
70807;DHT22;58882;52.170;5.386;2023-04-21T14:10:31;20.90;46.90
70807;DHT22;58882;52.170;5.386;2023-04-21T14:12:58;20.90;47.80
70807;DHT22;58882;52.170;5.386;2023-04-21T14:15:25;20.90;48.40
70807;DHT22;58882;52.170;5.386;2023-04-21T14:17:52;20.90;48.30
70807;DHT22;58882;52.170;5.386;2023-04-21T14:20:19;21.00;48.20
70807;DHT22;58882;52.170;5.386;2023-04-21T14:22:46;20.90;47.50
70807;DHT22;58882;52.170;5.386;2023-04-21T14:25:13;20.90;47.20
70807;DHT22;58882;52.170;5.386;2023-04-21T14:27:40;20.90;47.30
70807;DHT22;58882;52.170;5.386;2023-04-21T14:30:07;20.90;47.80
70807;DHT22;58882;52.170;5.386;2023-04-21T14:32:36;20.90;48.60
70807;DHT22;58882;52.170;5.386;2023-04-21T14:35:03;20.90;48.50
70807;DHT22;58882;52.170;5.386;2023-04-21T14:37:31;20.80;47.30
70807;DHT22;58882;52.170;5.386;2023-04-21T14:39:58;20.80;48.00
70807;DHT22;58882;52.170;5.386;2023-04-21T14:42:25;20.80;47.20
70807;DHT22;58882;52.170;5.386;2023-04-21T14:44:52;20.70;47.30
70807;DHT22;58882;52.170;5.386;2023-04-21T14:47:20;20.70;47.10
70807;DHT22;58882;52.170;5.386;2023-04-21T14:49:47;20.70;46.70
70807;DHT22;58882;52.170;5.386;2023-04-21T14:52:20;20.70;46.90
70807;DHT22;58882;52.170;5.386;2023-04-21T14:54:50;20.70;46.50
70807;DHT22;58882;52.170;5.386;2023-04-21T14:57:17;20.70;47.00
70807;DHT22;58882;52.170;5.386;2023-04-21T14:59:50;20.70;46.80
70807;DHT22;58882;52.170;5.386;2023-04-21T15:02:21;20.70;46.90
70807;DHT22;58882;52.170;5.386;2023-04-21T15:04:48;20.60;47.70
70807;DHT22;58882;52.170;5.386;2023-04-21T15:07:15;20.60;48.50
70807;DHT22;58882;52.170;5.386;2023-04-21T15:09:49;20.60;48.10
70807;DHT22;58882;52.170;5.386;2023-04-21T15:12:16;20.50;48.30
70807;DHT22;58882;52.170;5.386;2023-04-21T15:14:43;20.40;47.00
70807;DHT22;58882;52.170;5.386;2023-04-21T15:17:10;20.40;47.50
70807;DHT22;58882;52.170;5.386;2023-04-21T15:19:37;20.40;47.80
70807;DHT22;58882;52.170;5.386;2023-04-21T15:22:04;20.40;48.50
70807;DHT22;58882;52.170;5.386;2023-04-21T15:24:31;20.40;48.80
70807;DHT22;58882;52.170;5.386;2023-04-21T15:26:58;20.40;48.90
70807;DHT22;58882;52.170;5.386;2023-04-21T15:29:25;20.40;49.20
70807;DHT22;58882;52.170;5.386;2023-04-21T15:31:51;20.40;48.70
70807;DHT22;58882;52.170;5.386;2023-04-21T15:34:18;20.40;49.00
70807;DHT22;58882;52.170;5.386;2023-04-21T15:36:45;20.40;48.20
70807;DHT22;58882;52.170;5.386;2023-04-21T15:39:12;20.40;48.50
70807;DHT22;58882;52.170;5.386;2023-04-21T15:41:41;20.30;49.20